createdAt,value
2023-02-05T00:07:43.780Z,65.04
2023-02-05T00:18:11.238Z,65.49
2023-02-05T00:28:39.321Z,65.81
2023-02-05T00:39:09.173Z,66.52
2023-02-05T00:49:36.935Z,67.14
2023-02-05T01:00:07.132Z,66.99
2023-02-05T01:10:35.078Z,66.92
2023-02-05T01:21:02.895Z,66.94
2023-02-05T01:31:30.893Z,67.03
2023-02-05T01:41:58.694Z,67.22
2023-02-05T01:52:26.935Z,67.30
2023-02-05T02:02:55.139Z,67.42
2023-02-05T02:13:23.709Z,67.26
2023-02-05T02:24:13.041Z,67.00
2023-02-05T02:34:45.110Z,66.55
2023-02-05T02:45:15.731Z,66.51
2023-02-05T02:55:45.665Z,66.30
2023-02-05T03:06:15.796Z,65.99
2023-02-05T03:16:43.392Z,65.61
2023-02-05T03:27:11.206Z,65.29
2023-02-05T03:37:48.270Z,64.66
2023-02-05T03:48:32.763Z,64.20
2023-02-05T03:59:02.635Z,64.77
2023-02-05T04:09:30.348Z,64.53
2023-02-05T04:19:57.882Z,63.35
2023-02-05T04:30:25.392Z,62.41
2023-02-05T04:40:52.961Z,62.94
2023-02-05T04:51:20.408Z,63.30
2023-02-05T05:01:48.124Z,63.58
2023-02-05T05:12:15.595Z,63.70
2023-02-05T05:22:43.216Z,62.95
2023-02-05T05:33:11.091Z,62.92
2023-02-05T05:43:47.886Z,62.63
2023-02-05T05:54:15.515Z,63.11
2023-02-05T06:04:43.209Z,62.74
2023-02-05T06:15:11.789Z,62.11
2023-02-05T06:25:39.414Z,61.67
2023-02-05T06:36:08.253Z,61.85
2023-02-05T06:46:35.848Z,62.08
2023-02-05T06:57:03.404Z,61.61
2023-02-05T07:07:30.972Z,62.80
2023-02-05T07:17:58.673Z,62.83
2023-02-05T07:28:26.299Z,63.41
2023-02-05T07:38:53.878Z,64.50
2023-02-05T07:49:21.500Z,64.42
2023-02-05T07:59:49.142Z,64.68
2023-02-05T08:10:17.051Z,65.15
2023-02-05T08:20:45.140Z,64.72
2023-02-05T08:31:18.216Z,64.16
2023-02-05T08:41:45.818Z,64.85
2023-02-05T08:52:13.337Z,64.82
2023-02-05T09:02:41.847Z,64.21
2023-02-05T09:13:07.963Z,63.68
2023-02-05T09:23:35.585Z,63.56
2023-02-05T09:34:04.830Z,62.85
2023-02-05T09:44:50.406Z,61.73
2023-02-05T09:55:24.878Z,61.23
2023-02-05T10:06:09.114Z,61.24
2023-02-05T10:17:05.907Z,61.26
2023-02-05T10:27:42.879Z,61.24
2023-02-05T10:38:17.207Z,61.64
2023-02-05T10:48:50.274Z,61.60
2023-02-05T10:59:25.873Z,61.84
2023-02-05T11:09:54.606Z,62.32
2023-02-05T11:20:36.560Z,62.92
2023-02-05T11:31:21.722Z,61.69
2023-02-05T11:41:51.813Z,61.68
2023-02-05T11:52:28.515Z,61.66
2023-02-05T12:03:06.445Z,61.53
2023-02-05T12:13:47.566Z,60.39
2023-02-05T12:24:47.548Z,60.04
2023-02-05T12:35:37.549Z,60.08
2023-02-05T12:46:20.013Z,60.64
2023-02-05T12:56:56.310Z,61.84
2023-02-05T13:07:31.976Z,62.62
2023-02-05T13:18:03.830Z,62.62
2023-02-05T13:28:43.230Z,62.28
2023-02-05T13:39:34.323Z,61.60
2023-02-05T13:50:29.462Z,60.93
2023-02-05T14:01:02.633Z,59.96
2023-02-05T14:11:30.858Z,58.32
2023-02-05T14:22:11.501Z,58.39
2023-02-05T14:33:01.116Z,58.05
2023-02-05T14:43:35.454Z,57.90
2023-02-05T14:54:08.248Z,57.89
2023-02-05T15:04:46.093Z,58.02
2023-02-05T15:15:32.794Z,57.69
2023-02-05T15:26:05.424Z,57.57
2023-02-05T15:36:41.490Z,57.67
2023-02-05T15:47:18.796Z,57.11
2023-02-05T15:57:47.005Z,57.04
2023-02-05T16:08:23.472Z,57.05
2023-02-05T16:18:57.262Z,57.55
2023-02-05T16:29:38.982Z,57.84
2023-02-05T16:40:14.722Z,58.31
2023-02-05T16:50:43.868Z,58.41
2023-02-05T17:01:11.650Z,58.44
2023-02-05T17:11:42.108Z,58.34
2023-02-05T17:22:22.758Z,58.21
2023-02-05T17:32:51.261Z,58.18
2023-02-05T17:43:18.898Z,58.19
2023-02-05T17:53:46.424Z,58.34
2023-02-05T18:04:14.622Z,58.52
2023-02-05T18:14:42.160Z,58.11
2023-02-05T18:25:10.483Z,58.35
2023-02-05T18:35:39.517Z,58.13
2023-02-05T18:46:12.700Z,57.54
2023-02-05T18:56:40.328Z,57.30
2023-02-05T19:07:07.959Z,57.50
2023-02-05T19:17:35.591Z,57.64
2023-02-05T19:28:03.305Z,57.67
2023-02-05T19:38:31.923Z,57.74
2023-02-05T19:49:00.815Z,57.58
2023-02-05T19:59:27.143Z,57.75
2023-02-05T20:09:54.671Z,57.93
2023-02-05T20:20:33.158Z,57.80
2023-02-05T20:31:19.340Z,57.70
2023-02-05T20:41:47.959Z,57.82
2023-02-05T20:52:13.932Z,57.61
2023-02-05T21:02:41.445Z,57.71
2023-02-05T21:13:09.006Z,58.21
2023-02-05T21:23:36.727Z,58.28
2023-02-05T21:34:05.028Z,58.01
2023-02-05T21:44:32.659Z,57.51
2023-02-05T21:55:00.229Z,57.08
2023-02-05T22:05:28.156Z,57.40
2023-02-05T22:16:05.711Z,57.17
2023-02-05T22:26:36.197Z,57.37
2023-02-05T22:37:03.954Z,57.45
2023-02-05T22:47:31.663Z,58.22
2023-02-05T22:57:59.235Z,58.55
2023-02-05T23:08:26.837Z,58.69
2023-02-05T23:18:56.955Z,58.75
2023-02-05T23:29:24.422Z,58.47
2023-02-05T23:39:51.945Z,58.36
2023-02-05T23:50:19.905Z,58.13
